KBNA

Nashville International Airport

Nashville, Tennessee, USA
KBNA 210923Z 2109/2206 13007G20KT P6SM -SHRA FEW017 OVC035 FM211100 VRB06KT P6SM SCT035 BKN250 FM211500 29009KT P6SM SCT050 BKN250 FM211800 30008KT P6SM VCTS SCT050CB BKN100 BKN250 FM220200 32007KT P6SM BKN250
Issued Valid From Valid To
Jul-21 @ 09:23 UTC
(32 minutes ago)
Jul-21 @ 09:00 UTC
(55 minutes ago)
Jul-22 @ 06:00 UTC
(in 20 hours)
Jul-21 @ 09:00 to Jul-21 @ 11:00
KBNA 210923Z 2109/2206 13007G20KT P6SM -SHRA FEW017 OVC035
Wind Visibility Clouds Conditions
130° at 7 knots
 Gusting to 20 knots
Greater than 6 miles
  • Few at 1,700' AGL
  • Overcast at 3,500' AGL
  • Light Rain
From Jul-21 @ 11:00 to Jul-21 @ 15:00
FM211100 VRB06KT P6SM SCT035 BKN250
Wind Visibility Clouds
Variable at 6 knots Greater than 6 miles
  • Scattered at 3,500' AGL
  • Broken at 25,000' AGL
From Jul-21 @ 15:00 to Jul-21 @ 18:00
FM211500 29009KT P6SM SCT050 BKN250
Wind Visibility Clouds
290° at 9 knots Greater than 6 miles
  • Scattered at 5,000' AGL
  • Broken at 25,000' AGL
From Jul-21 @ 18:00 to Jul-22 @ 02:00
FM211800 30008KT P6SM VCTS SCT050CB BKN100 BKN250
Wind Visibility Clouds Conditions
300° at 8 knots Greater than 6 miles
  • Scattered at 5,000' AGL
  • Broken at 10,000' AGL
  • Broken at 25,000' AGL
  • Area Thunderstorm
From Jul-22 @ 02:00 to Jul-22 @ 06:00
FM220200 32007KT P6SM BKN250
Wind Visibility Clouds
320° at 7 knots Greater than 6 miles
  • Broken at 25,000' AGL
KBNA 210923Z 2109/2206 13007G20KT P6SM -SHRA FEW017 OVC035 FM211100 VRB06KT P6SM SCT035 BKN250 FM211500 29009KT P6SM SCT050 BKN250 FM211800 30008KT P6SM VCTS SCT050CB BKN100 BKN250 FM220200 32007KT P6SM BKN250
Issued Jul-21 @ 09:23 UTC
(32 minutes ago)
Valid From Jul-21 @ 09:00 UTC
(55 minutes ago)
Valid To Jul-22 @ 06:00 UTC
(in 20 hours)
Jul-21 @ 09:00 - Jul-21 @ 11:00
Wind Visibility
130° at 7 knots
 Gusting to 20 knots
Greater than 6 miles
Clouds
  • Few at 1,700' AGL
  • Overcast at 3,500' AGL
Conditions
  • Light Rain
From Jul-21 @ 11:00 - Jul-21 @ 15:00
Wind Visibility
Variable at 6 knots Greater than 6 miles
Clouds
  • Scattered at 3,500' AGL
  • Broken at 25,000' AGL
From Jul-21 @ 15:00 - Jul-21 @ 18:00
Wind Visibility
290° at 9 knots Greater than 6 miles
Clouds
  • Scattered at 5,000' AGL
  • Broken at 25,000' AGL
From Jul-21 @ 18:00 - Jul-22 @ 02:00
Wind Visibility
300° at 8 knots Greater than 6 miles
Clouds
  • Scattered at 5,000' AGL
  • Broken at 10,000' AGL
  • Broken at 25,000' AGL
Conditions
  • Area Thunderstorm
From Jul-22 @ 02:00 - Jul-22 @ 06:00
Wind Visibility
320° at 7 knots Greater than 6 miles
Clouds
  • Broken at 25,000' AGL